Flight Track Log - Related Links

Times and Time Zones

All times are in EDT time to prevent confusion due to time zone crossing. See the EJA396 flight status page for this flight to view local times or setup timezone preferences in your user account.

Time Position Orientation Groundspeed Altitude Reporting Facility
EDT Latitude Longitude Course Direction KTS MPH feet Rate Location/Type
Sun 06:41:55 PM 36.4328 -82.0956 44° Northeast 188 216 7,600  Level Atlanta Center
Sun 06:42:55 PM 36.4944 -82.0269 42° Northeast 262 302 9,900 1,750 Climbing Atlanta Center
Sun 06:43:55 PM 36.5658 -81.9425 44° Northeast 327 376 11,100 2,450 Climbing Atlanta Center
Sun 06:44:55 PM 36.6394 -81.8578 43° Northeast 353 406 14,800 3,550 Climbing Atlanta Center
Sun 06:45:55 PM 36.7131 -81.7728 43° Northeast 359 413 18,200 2,900 Climbing Atlanta Center
Sun 06:46:55 PM 36.7883 -81.6800 45° Northeast 359 413 20,600 2,700 Climbing Atlanta Center
Sun 06:47:55 PM 36.8681 -81.5894 42° Northeast 370 426 23,600 2,867 Climbing Atlanta Center
Sun 06:48:25 PM 36.9067 -81.5442 43° Northeast 385 443 24,900 913 Climbing Indianapolis Center
Sun 06:49:27 PM 36.9931 -81.4406 44° Northeast 431 496 25,000 823 Climbing Indianapolis Center
Sun 06:50:29 PM 37.0897 -81.3256 43° Northeast 418 481 26,600 968 Climbing Indianapolis Center
Sun 06:51:31 PM 37.1747 -81.2250 43° Northeast 418 481 27,000 194 Climbing Indianapolis Center
Sun 06:52:33 PM 37.2608 -81.1228 43° Northeast 435 501 27,000 581 Level Indianapolis Center
Sun 06:53:35 PM 37.3486 -81.0200 43° Northeast 441 507 28,200 1,728 Climbing Indianapolis Center
Sun 06:54:38 PM 37.4278 -80.8767 55° Northeast 452 520 30,600 1,344 Climbing Indianapolis Center
Sun 06:55:40 PM 37.4400 -80.7186 84° East 468 539 31,000 629 Climbing Indianapolis Center
Sun 06:56:42 PM 37.4769 -80.5578 74° East 489 563 31,900 1,113 Climbing Indianapolis Center
Sun 06:57:44 PM 37.5228 -80.3656 73° East 492 566 33,300 1,742 Climbing Indianapolis Center
Sun 06:58:46 PM 37.5592 -80.2089 74° East 481 554 35,500 2,081 Climbing Indianapolis Center
Sun 06:59:48 PM 37.5936 -80.0603 74° East 461 531 37,600 1,694 Climbing Indianapolis Center
Sun 07:00:50 PM 37.6328 -79.8872 74° East 439 505 39,000 689 Climbing Indianapolis Center
Sun 07:01:50 PM 37.6653 -79.7528 73° East 455 524 39,000  Level Washington Center
Sun 07:02:51 PM 37.7022 -79.5842 74° East 455 524 39,000  Level Washington Center
Sun 07:03:51 PM 37.7428 -79.4314 71° East 447 514 39,000 149 Level Washington Center
Sun 07:04:52 PM 37.7747 -79.2753 75° East 452 520 39,300 655 Climbing Washington Center
Sun 07:05:50 PM 37.8086 -79.1219 74° East 452 520 40,300 864 Climbing Washington Center
Sun 07:06:50 PM 37.8397 -78.9839 74° East 447 514 41,000 347 Climbing Washington Center
Sun 07:07:51 PM 37.8708 -78.8328 75° East 447 514 41,000  Level Washington Center
Sun 07:08:51 PM 37.9042 -78.6761 75° East 452 520 41,000  Level Washington Center
Sun 07:09:52 PM 37.9394 -78.5222 74° East 452 520 41,000  Level Washington Center
Sun 07:10:53 PM 37.9747 -78.3525 75° East 452 520 41,000  Level Washington Center
Sun 07:11:50 PM 38.0094 -78.1983 74° East 452 520 41,000  Level Washington Center
Sun 07:12:50 PM 38.0536 -78.0758 65° Northeast 441 507 41,000  Level Washington Center
Sun 07:13:51 PM 38.1169 -77.9433 59° Northeast 430 495 41,000  Level Washington Center
Sun 07:14:51 PM 38.1839 -77.8133 57° Northeast 430 495 41,000  Level Washington Center
Sun 07:15:52 PM 38.2489 -77.6831 58° Northeast 430 495 41,000  Level Washington Center
Sun 07:16:52 PM 38.3136 -77.5500 58° Northeast 430 495 41,000  Level Washington Center
Sun 07:17:51 PM 38.3761 -77.4164 59° Northeast 430 495 41,000  Level Washington Center
Sun 07:18:53 PM 38.4408 -77.2856 58° Northeast 430 495 41,000  Level Washington Center
Sun 07:19:50 PM 38.5050 -77.1569 57° Northeast 425 489 41,000  Level Washington Center
Sun 07:20:51 PM 38.5692 -77.0228 59° Northeast 425 489 41,000  Level Washington Center
Sun 07:21:52 PM 38.6311 -76.8939 58° Northeast 425 489 41,000  Level Washington Center
Sun 07:22:52 PM 38.6950 -76.7672 57° Northeast 425 489 41,000  Level Washington Center
Sun 07:23:50 PM 38.7547 -76.6300 61° Northeast 425 489 41,000  Level Washington Center
Sun 07:24:50 PM 38.8119 -76.4975 61° Northeast 425 489 41,000  Level Washington Center
Sun 07:25:51 PM 38.8714 -76.3622 61° Northeast 425 489 41,000  Level Washington Center
Sun 07:26:53 PM 38.9261 -76.2294 62° Northeast 425 489 41,000  Level Washington Center
Sun 07:27:50 PM 39.0081 -76.1206 46° Northeast 419 482 41,000  Level Washington Center
Sun 07:28:51 PM 39.0897 -76.0114 46° Northeast 419 482 41,000  Level Washington Center
Sun 07:29:52 PM 39.1733 -75.9047 45° Northeast 414 476 41,000  Level Washington Center
Sun 07:30:51 PM 39.2569 -75.8006 44° Northeast 414 476 41,000  Level Washington Center
Sun 07:31:52 PM 39.3383 -75.6936 45° Northeast 409 471 41,000  Level Washington Center
Sun 07:32:50 PM 39.4219 -75.5836 45° Northeast 409 471 41,000  Level Washington Center
Sun 07:33:50 PM 39.5050 -75.4786 44° Northeast 409 471 41,000  Level Washington Center
Sun 07:34:51 PM 39.5883 -75.3681 46° Northeast 409 471 41,000  Level Washington Center
Sun 07:35:50 PM 39.6694 -75.2600 46° Northeast 409 471 41,000 -419 Level Washington Center
Sun 07:37:00 PM 39.7686 -75.1164 48° Northeast 436 502 40,100 -969 Descending New York Center
Sun 07:38:00 PM 39.8414 -75.0100 48° Northeast 423 487 38,900 -1,200 Descending New York Center
Sun 07:39:00 PM 39.9139 -74.9089 47° Northeast 394 453 37,700 -1,150 Descending New York Center
Sun 07:40:00 PM 39.9794 -74.8233 45° Northeast 370 426 36,600 -1,150 Descending New York Center
Sun 07:41:00 PM 40.0475 -74.7217 49° Northeast 370 426 35,400 -1,200 Descending New York Center
Sun 07:42:00 PM 40.1117 -74.6058 54° Northeast 375 432 34,200 -1,200 Descending New York Center
Sun 07:43:00 PM 40.1739 -74.4817 57° Northeast 388 447 33,000 -1,200 Descending New York Center
Sun 07:44:00 PM 40.2406 -74.3547 55° Northeast 408 470 31,800 -1,181 Descending New York Center
Sun 07:46:13 PM 40.3864 -74.0794 55° Northeast 439 505 29,200 -1,262 Descending Boston Center
Sun 07:47:15 PM 40.4597 -73.9469 54° Northeast 432 497 27,700 -1,377 Descending Boston Center
Sun 07:48:15 PM 40.5269 -73.8214 55° Northeast 425 489 26,400 -1,388 Descending Boston Center
Sun 07:49:16 PM 40.6011 -73.6761 56° Northeast 417 480 24,900 -1,377 Descending Boston Center
Sun 07:50:17 PM 40.6633 -73.5556 56° Northeast 404 465 23,600 -1,230 Descending Boston Center
Sun 07:51:18 PM 40.7247 -73.4378 55° Northeast 393 452 22,400 -1,131 Descending Boston Center
Sun 07:52:19 PM 40.7806 -73.3278 56° Northeast 392 451 21,300 -672 Descending Boston Center
Sun 07:53:23 PM 40.8578 -73.2319 43° Northeast 384 442 21,000 -435 Descending Boston Center
Sun 07:54:23 PM 40.9583 -73.1144 41° Northeast 400 460 20,400 -992 Descending Boston Center
Sun 07:55:24 PM 41.0375 -73.0200 42° Northeast 390 449 19,000 -1,289 Descending Boston Center
Sun 07:56:24 PM 41.1136 -72.9303 42° Northeast 382 440 17,800 -1,065 Descending Boston Center
Sun 07:57:28 PM 41.1931 -72.8367 42° Northeast 379 436 16,800 -1,104 Descending Boston Center
Sun 07:58:29 PM 41.2783 -72.7353 42° Northeast 381 438 15,500 -843 Descending Boston Center
Sun 07:59:29 PM 41.3783 -72.6664 27° Northeast 384 442 15,100 -198 Descending Boston Center
Sun 08:00:30 PM 41.4761 -72.6211 19° North 373 429 15,100 -98 Level Boston Center
Sun 08:01:31 PM 41.5700 -72.5803 18° North 358 412 14,900 -780 Descending Boston Center
Sun 08:02:10 PM 41.6353 -72.5483 20° North 367 422 13,800 -1,600 Descending Boston Center
Sun 08:02:31 PM 41.6628 -72.5244 33° Northeast 376 433 13,300 -1,667 Descending Boston Center
Sun 08:02:46 PM 41.6839 -72.4994 41° Northeast 366 421 12,800 -1,594 Descending Boston Center
Sun 08:03:35 PM 41.7447 -72.4339 39° Northeast 357 411 11,600 -1,636 Descending Boston Center
Sun 08:03:41 PM 41.7550 -72.4239 36° Northeast 349 402 11,300 -1,391 Descending Boston Center
Sun 08:04:44 PM 41.8278 -72.3400 41° Northeast 343 395 10,000 -678 Descending Boston Center
Sun 08:05:36 PM 41.8900 -72.2725 39° Northeast 341 392 10,000  Level Boston Center
Sun 08:05:45 PM 41.9017 -72.2594 40° Northeast 340 391 10,000  Level Boston Center
Sun 08:06:36 PM 41.9658 -72.1853 41° Northeast 335 386 10,000  Level Boston Center
Sun 08:06:43 PM 41.9711 -72.1800 37° Northeast 336 387 10,000 -1,180 Level Boston Center
Sun 08:07:37 PM 42.0253 -72.1186 40° Northeast 274 315 8,800 -1,263 Descending Boston Center
Sun 08:07:40 PM 42.0261 -72.1183 14° North 261 300 8,800 -1,125 Level Boston Center
Sun 08:08:41 PM 42.0875 -72.0472 41° Northeast 317 365 7,600 -1,041 Descending Boston Center
Sun 08:09:41 PM 42.1519 -71.9758 39° Northeast 282 325 6,700 -942 Descending Boston Center
Sun 08:10:42 PM 42.2125 -71.9100 39° Northeast 282 325 5,700 -829 Descending Boston Center
Sun 08:11:44 PM 42.2706 -71.8453 40° Northeast 273 314 5,000 -344 Descending Boston Center
Sun 08:12:44 PM 42.3244 -71.7842 40° Northeast 257 296 5,000 -50 Level Boston Center
Sun 08:13:45 PM 42.3808 -71.7125 43° Northeast 271 312 4,900 -927 Descending Boston Center
Sun 08:14:47 PM 42.4253 -71.6244 56° Northeast 265 305 3,100 -1,226 Descending Boston Center
Sun 08:15:18 PM 42.4500 -71.5833 51° Northeast 230 265 3,000 -66 Descending KA90
Sun 08:16:18 PM 42.4667 -71.5167 71° East 199 229 3,000 -250 Level KA90
Sun 08:17:18 PM 42.4833 -71.4500 71° East 170 196 2,500 -700 Descending KA90
Sun 08:18:18 PM 42.4833 -71.3833 90° East 184 212 1,600 -810 Descending KA90
Sun 08:19:24 PM 42.4833 -71.3333 90° East 102 117 800 -727 Descending KA90
Sun 08:22:00 PM 42.4667 -71.2833 270° West  Level FlightAware Approximate

Login

Don't have an account? Register now (free) for customized features, flight alerts, and more!